KMDD/MDD METAR and TAF weather

Enter ICAO airport designator
Station Type Date Time Source
KMDD METAR 2021/02/25 01:35 UTC NOAA

KMDD 250135Z AUTO 08009KT 10SM CLR 15/M02 A3008 RMK AO2 T01461017


Station Type Date Time Source
KMDD Decoded METAR 2021/02/25 01:35 UTC NOAA

Midland, Midland Airpark, TX, United States (KMDD) 32-02-11N 102-06-03W
Feb 24, 2021 - 08:35 PM EST / 2021.02.25 0135 UTC
Wind: from the E (080 degrees) at 10 MPH (9 KT):0
Visibility: 10 mile(s):0
Sky conditions: clear
Temperature: 58.3 F (14.6 C)
Dew Point: 28.9 F (-1.7 C)
Relative Humidity: 32%
Pressure (altimeter): 30.08 in. Hg (1018 hPa)
ob: KMDD 250135Z AUTO 08009KT 10SM CLR 15/M02 A3008 RMK AO2 T01461017
cycle: 1

Station Type Date Time Source
KMDD TAF UTC NOAA

Error!

Example: see airport list